sensor_id;sensor_type;location;lat;lon;timestamp;temperature;humidity
21393;DHT22;10857;52.228;21.026;2024-01-15T00:00:30;2.10;99.90
21393;DHT22;10857;52.228;21.026;2024-01-15T00:02:57;2.10;99.90
21393;DHT22;10857;52.228;21.026;2024-01-15T00:05:24;2.10;99.90
21393;DHT22;10857;52.228;21.026;2024-01-15T00:07:51;2.10;99.90
21393;DHT22;10857;52.228;21.026;2024-01-15T00:10:18;2.10;99.90
21393;DHT22;10857;52.228;21.026;2024-01-15T00:12:45;2.10;99.90
21393;DHT22;10857;52.228;21.026;2024-01-15T00:15:12;2.10;99.90
21393;DHT22;10857;52.228;21.026;2024-01-15T00:17:39;2.10;99.90
21393;DHT22;10857;52.228;21.026;2024-01-15T00:20:07;2.10;99.90
21393;DHT22;10857;52.228;21.026;2024-01-15T00:22:34;2.00;99.90
21393;DHT22;10857;52.228;21.026;2024-01-15T00:25:03;2.00;99.90
21393;DHT22;10857;52.228;21.026;2024-01-15T00:27:30;2.10;99.90
21393;DHT22;10857;52.228;21.026;2024-01-15T00:29:57;2.10;99.90
21393;DHT22;10857;52.228;21.026;2024-01-15T00:32:24;2.10;99.90
21393;DHT22;10857;52.228;21.026;2024-01-15T00:34:51;2.00;99.90
21393;DHT22;10857;52.228;21.026;2024-01-15T00:37:19;2.10;99.90
21393;DHT22;10857;52.228;21.026;2024-01-15T00:39:45;2.10;99.90
21393;DHT22;10857;52.228;21.026;2024-01-15T00:42:13;2.10;99.90
21393;DHT22;10857;52.228;21.026;2024-01-15T00:44:40;2.10;99.90
21393;DHT22;10857;52.228;21.026;2024-01-15T00:47:07;2.10;99.90
21393;DHT22;10857;52.228;21.026;2024-01-15T00:49:34;2.10;99.90
21393;DHT22;10857;52.228;21.026;2024-01-15T00:52:01;2.10;99.90
21393;DHT22;10857;52.228;21.026;2024-01-15T00:54:28;2.10;99.90
21393;DHT22;10857;52.228;21.026;2024-01-15T00:56:55;2.10;99.90
21393;DHT22;10857;52.228;21.026;2024-01-15T00:59:22;2.20;99.90
21393;DHT22;10857;52.228;21.026;2024-01-15T01:01:49;2.10;99.90
21393;DHT22;10857;52.228;21.026;2024-01-15T01:04:16;2.10;99.90
21393;DHT22;10857;52.228;21.026;2024-01-15T01:06:44;2.00;99.90
21393;DHT22;10857;52.228;21.026;2024-01-15T01:09:11;2.00;99.90
21393;DHT22;10857;52.228;21.026;2024-01-15T01:11:38;1.90;99.90
21393;DHT22;10857;52.228;21.026;2024-01-15T01:14:05;1.90;99.90
21393;DHT22;10857;52.228;21.026;2024-01-15T01:16:33;1.90;99.90
21393;DHT22;10857;52.228;21.026;2024-01-15T01:19:06;1.90;99.90
21393;DHT22;10857;52.228;21.026;2024-01-15T01:21:36;1.80;99.90
21393;DHT22;10857;52.228;21.026;2024-01-15T01:24:04;1.80;99.90
21393;DHT22;10857;52.228;21.026;2024-01-15T01:26:31;1.80;99.90
21393;DHT22;10857;52.228;21.026;2024-01-15T01:28:58;1.80;99.90
21393;DHT22;10857;52.228;21.026;2024-01-15T01:31:25;1.80;99.90
21393;DHT22;10857;52.228;21.026;2024-01-15T01:33:53;1.80;99.90
21393;DHT22;10857;52.228;21.026;2024-01-15T01:36:20;1.80;99.90
21393;DHT22;10857;52.228;21.026;2024-01-15T01:38:47;1.80;99.90
21393;DHT22;10857;52.228;21.026;2024-01-15T01:41:14;1.80;99.90
21393;DHT22;10857;52.228;21.026;2024-01-15T01:43:42;1.80;99.90
21393;DHT22;10857;52.228;21.026;2024-01-15T01:46:10;1.70;99.90
21393;DHT22;10857;52.228;21.026;2024-01-15T01:48:37;1.70;99.90
21393;DHT22;10857;52.228;21.026;2024-01-15T01:51:05;1.80;99.90
21393;DHT22;10857;52.228;21.026;2024-01-15T01:53:33;1.80;99.90
21393;DHT22;10857;52.228;21.026;2024-01-15T01:56:02;1.80;99.90
21393;DHT22;10857;52.228;21.026;2024-01-15T01:58:31;1.80;99.90
21393;DHT22;10857;52.228;21.026;2024-01-15T02:00:59;1.80;99.90
21393;DHT22;10857;52.228;21.026;2024-01-15T02:03:27;1.80;99.90
21393;DHT22;10857;52.228;21.026;2024-01-15T02:05:56;1.90;99.90
21393;DHT22;10857;52.228;21.026;2024-01-15T02:08:23;1.80;99.90
21393;DHT22;10857;52.228;21.026;2024-01-15T02:10:50;1.90;99.90
21393;DHT22;10857;52.228;21.026;2024-01-15T02:13:18;1.90;99.90
21393;DHT22;10857;52.228;21.026;2024-01-15T02:15:45;2.00;99.90
21393;DHT22;10857;52.228;21.026;2024-01-15T02:18:12;1.90;99.90
21393;DHT22;10857;52.228;21.026;2024-01-15T02:20:39;1.90;99.90
21393;DHT22;10857;52.228;21.026;2024-01-15T02:23:10;1.90;99.90
21393;DHT22;10857;52.228;21.026;2024-01-15T02:25:45;1.90;99.90
21393;DHT22;10857;52.228;21.026;2024-01-15T02:28:14;1.90;99.90
21393;DHT22;10857;52.228;21.026;2024-01-15T02:30:42;1.90;99.90
21393;DHT22;10857;52.228;21.026;2024-01-15T02:33:11;2.00;99.90
21393;DHT22;10857;52.228;21.026;2024-01-15T02:35:39;2.00;99.90
21393;DHT22;10857;52.228;21.026;2024-01-15T02:38:07;2.00;99.90
21393;DHT22;10857;52.228;21.026;2024-01-15T02:40:34;2.00;99.90
21393;DHT22;10857;52.228;21.026;2024-01-15T02:43:02;2.00;99.90
21393;DHT22;10857;52.228;21.026;2024-01-15T02:45:29;2.00;99.90
21393;DHT22;10857;52.228;21.026;2024-01-15T02:47:56;2.00;99.90
21393;DHT22;10857;52.228;21.026;2024-01-15T02:50:23;2.00;99.90
21393;DHT22;10857;52.228;21.026;2024-01-15T02:52:50;2.00;99.90
21393;DHT22;10857;52.228;21.026;2024-01-15T02:55:17;2.00;99.90
21393;DHT22;10857;52.228;21.026;2024-01-15T02:57:44;2.00;99.90
21393;DHT22;10857;52.228;21.026;2024-01-15T03:00:12;1.90;99.90
21393;DHT22;10857;52.228;21.026;2024-01-15T03:02:40;2.00;99.90
21393;DHT22;10857;52.228;21.026;2024-01-15T03:05:11;2.00;99.90
21393;DHT22;10857;52.228;21.026;2024-01-15T03:07:39;1.90;99.90
21393;DHT22;10857;52.228;21.026;2024-01-15T03:10:06;1.90;99.90
21393;DHT22;10857;52.228;21.026;2024-01-15T03:12:33;1.90;99.90
21393;DHT22;10857;52.228;21.026;2024-01-15T03:15:01;1.90;99.90
21393;DHT22;10857;52.228;21.026;2024-01-15T03:17:28;1.90;99.90
21393;DHT22;10857;52.228;21.026;2024-01-15T03:19:55;1.90;99.90
21393;DHT22;10857;52.228;21.026;2024-01-15T03:22:22;1.90;99.90
21393;DHT22;10857;52.228;21.026;2024-01-15T03:24:49;1.90;99.90
21393;DHT22;10857;52.228;21.026;2024-01-15T03:27:16;1.90;99.90
21393;DHT22;10857;52.228;21.026;2024-01-15T03:29:43;1.80;99.90
21393;DHT22;10857;52.228;21.026;2024-01-15T03:32:10;1.80;99.90
21393;DHT22;10857;52.228;21.026;2024-01-15T03:34:38;1.70;99.90
21393;DHT22;10857;52.228;21.026;2024-01-15T03:37:05;1.60;99.90
21393;DHT22;10857;52.228;21.026;2024-01-15T03:39:32;1.60;99.90
21393;DHT22;10857;52.228;21.026;2024-01-15T03:42:00;1.70;99.90
21393;DHT22;10857;52.228;21.026;2024-01-15T03:44:27;1.70;99.90
21393;DHT22;10857;52.228;21.026;2024-01-15T03:46:54;1.70;99.90
21393;DHT22;10857;52.228;21.026;2024-01-15T03:49:21;1.60;99.90
21393;DHT22;10857;52.228;21.026;2024-01-15T03:51:48;1.60;99.90
21393;DHT22;10857;52.228;21.026;2024-01-15T03:54:15;1.60;99.90
21393;DHT22;10857;52.228;21.026;2024-01-15T03:56:46;1.70;99.90
21393;DHT22;10857;52.228;21.026;2024-01-15T03:59:13;1.70;99.90
21393;DHT22;10857;52.228;21.026;2024-01-15T04:01:40;1.70;99.90
21393;DHT22;10857;52.228;21.026;2024-01-15T04:04:07;1.70;99.90
21393;DHT22;10857;52.228;21.026;2024-01-15T04:06:34;1.80;99.90
21393;DHT22;10857;52.228;21.026;2024-01-15T04:09:01;1.70;99.90
21393;DHT22;10857;52.228;21.026;2024-01-15T04:11:28;1.70;99.90
21393;DHT22;10857;52.228;21.026;2024-01-15T04:13:55;1.70;99.90
21393;DHT22;10857;52.228;21.026;2024-01-15T04:16:22;1.70;99.90
21393;DHT22;10857;52.228;21.026;2024-01-15T04:18:49;1.70;99.90
21393;DHT22;10857;52.228;21.026;2024-01-15T04:21:19;1.70;99.90
21393;DHT22;10857;52.228;21.026;2024-01-15T04:23:46;1.70;99.90
21393;DHT22;10857;52.228;21.026;2024-01-15T04:26:13;1.70;99.90
21393;DHT22;10857;52.228;21.026;2024-01-15T04:28:40;1.70;99.90
21393;DHT22;10857;52.228;21.026;2024-01-15T04:31:07;1.70;99.90
21393;DHT22;10857;52.228;21.026;2024-01-15T04:33:35;1.70;99.90
21393;DHT22;10857;52.228;21.026;2024-01-15T04:36:03;1.80;99.90
21393;DHT22;10857;52.228;21.026;2024-01-15T04:38:31;1.80;99.90
21393;DHT22;10857;52.228;21.026;2024-01-15T04:40:59;1.80;99.90
21393;DHT22;10857;52.228;21.026;2024-01-15T04:43:26;1.70;99.90
21393;DHT22;10857;52.228;21.026;2024-01-15T04:45:53;1.80;99.90
21393;DHT22;10857;52.228;21.026;2024-01-15T04:48:20;1.80;99.90
21393;DHT22;10857;52.228;21.026;2024-01-15T04:50:47;1.70;99.90
21393;DHT22;10857;52.228;21.026;2024-01-15T04:53:14;1.80;99.90
21393;DHT22;10857;52.228;21.026;2024-01-15T04:55:41;1.80;99.90
21393;DHT22;10857;52.228;21.026;2024-01-15T04:58:08;1.80;99.90
21393;DHT22;10857;52.228;21.026;2024-01-15T05:00:35;1.80;99.90
21393;DHT22;10857;52.228;21.026;2024-01-15T05:03:03;1.80;99.90
21393;DHT22;10857;52.228;21.026;2024-01-15T05:05:30;1.80;99.90
21393;DHT22;10857;52.228;21.026;2024-01-15T05:07:57;1.80;99.90
21393;DHT22;10857;52.228;21.026;2024-01-15T05:10:24;1.90;99.90
21393;DHT22;10857;52.228;21.026;2024-01-15T05:12:51;1.90;99.90
21393;DHT22;10857;52.228;21.026;2024-01-15T05:15:18;1.80;99.90
21393;DHT22;10857;52.228;21.026;2024-01-15T05:17:45;1.90;99.90
21393;DHT22;10857;52.228;21.026;2024-01-15T05:20:12;1.90;99.90
21393;DHT22;10857;52.228;21.026;2024-01-15T05:22:39;1.90;99.90
21393;DHT22;10857;52.228;21.026;2024-01-15T05:25:06;1.90;99.90
21393;DHT22;10857;52.228;21.026;2024-01-15T05:27:34;1.90;99.90
21393;DHT22;10857;52.228;21.026;2024-01-15T05:30:01;1.90;99.90
21393;DHT22;10857;52.228;21.026;2024-01-15T05:32:28;1.90;99.90
21393;DHT22;10857;52.228;21.026;2024-01-15T05:34:55;1.90;99.90
21393;DHT22;10857;52.228;21.026;2024-01-15T05:37:22;1.90;99.90
21393;DHT22;10857;52.228;21.026;2024-01-15T05:39:49;1.90;99.90
21393;DHT22;10857;52.228;21.026;2024-01-15T05:42:16;1.90;99.90
21393;DHT22;10857;52.228;21.026;2024-01-15T05:44:43;1.90;99.90
21393;DHT22;10857;52.228;21.026;2024-01-15T05:47:10;2.00;99.90
21393;DHT22;10857;52.228;21.026;2024-01-15T05:49:37;1.90;99.90
21393;DHT22;10857;52.228;21.026;2024-01-15T05:52:05;2.00;99.90
21393;DHT22;10857;52.228;21.026;2024-01-15T05:54:32;1.90;99.90
21393;DHT22;10857;52.228;21.026;2024-01-15T05:56:59;2.00;99.90
21393;DHT22;10857;52.228;21.026;2024-01-15T05:59:26;1.90;99.90
21393;DHT22;10857;52.228;21.026;2024-01-15T06:01:53;2.00;99.90
21393;DHT22;10857;52.228;21.026;2024-01-15T06:04:20;1.90;99.90
21393;DHT22;10857;52.228;21.026;2024-01-15T06:06:47;1.90;99.90
21393;DHT22;10857;52.228;21.026;2024-01-15T06:09:14;1.90;99.90
21393;DHT22;10857;52.228;21.026;2024-01-15T06:11:41;1.90;99.90
21393;DHT22;10857;52.228;21.026;2024-01-15T06:14:08;1.80;99.90
21393;DHT22;10857;52.228;21.026;2024-01-15T06:16:35;1.80;99.90
21393;DHT22;10857;52.228;21.026;2024-01-15T06:19:02;1.80;99.90
21393;DHT22;10857;52.228;21.026;2024-01-15T06:21:30;1.80;99.90
21393;DHT22;10857;52.228;21.026;2024-01-15T06:23:57;1.90;99.90
21393;DHT22;10857;52.228;21.026;2024-01-15T06:26:24;1.90;99.90
21393;DHT22;10857;52.228;21.026;2024-01-15T06:28:51;1.90;99.90
21393;DHT22;10857;52.228;21.026;2024-01-15T06:31:18;1.90;99.90
21393;DHT22;10857;52.228;21.026;2024-01-15T06:33:45;1.90;99.90
21393;DHT22;10857;52.228;21.026;2024-01-15T06:36:15;1.80;99.90
21393;DHT22;10857;52.228;21.026;2024-01-15T06:38:45;1.80;99.90
21393;DHT22;10857;52.228;21.026;2024-01-15T06:41:12;1.80;99.90
21393;DHT22;10857;52.228;21.026;2024-01-15T06:43:39;1.70;99.90
21393;DHT22;10857;52.228;21.026;2024-01-15T06:46:06;1.80;99.90
21393;DHT22;10857;52.228;21.026;2024-01-15T06:48:34;1.80;99.90
21393;DHT22;10857;52.228;21.026;2024-01-15T06:51:02;1.80;99.90
21393;DHT22;10857;52.228;21.026;2024-01-15T06:53:29;1.80;99.90
21393;DHT22;10857;52.228;21.026;2024-01-15T06:55:56;1.80;99.90
21393;DHT22;10857;52.228;21.026;2024-01-15T06:58:23;1.80;99.90
21393;DHT22;10857;52.228;21.026;2024-01-15T07:00:50;1.90;99.90
21393;DHT22;10857;52.228;21.026;2024-01-15T07:03:18;1.90;99.90
21393;DHT22;10857;52.228;21.026;2024-01-15T07:05:45;1.90;99.90
21393;DHT22;10857;52.228;21.026;2024-01-15T07:08:12;1.90;99.90
21393;DHT22;10857;52.228;21.026;2024-01-15T07:10:39;1.90;99.90
21393;DHT22;10857;52.228;21.026;2024-01-15T07:13:06;1.90;99.90
21393;DHT22;10857;52.228;21.026;2024-01-15T07:15:33;1.90;99.90
21393;DHT22;10857;52.228;21.026;2024-01-15T07:18:00;1.90;99.90
21393;DHT22;10857;52.228;21.026;2024-01-15T07:20:28;1.80;99.90
21393;DHT22;10857;52.228;21.026;2024-01-15T07:22:54;1.80;99.90
21393;DHT22;10857;52.228;21.026;2024-01-15T07:25:22;1.80;99.90
21393;DHT22;10857;52.228;21.026;2024-01-15T07:27:49;1.80;99.90
21393;DHT22;10857;52.228;21.026;2024-01-15T07:30:16;1.80;99.90
21393;DHT22;10857;52.228;21.026;2024-01-15T07:32:43;1.70;99.90
21393;DHT22;10857;52.228;21.026;2024-01-15T07:35:10;1.70;99.90
21393;DHT22;10857;52.228;21.026;2024-01-15T07:37:37;1.70;99.90
21393;DHT22;10857;52.228;21.026;2024-01-15T07:40:05;1.70;99.90
21393;DHT22;10857;52.228;21.026;2024-01-15T07:42:35;1.70;99.90
21393;DHT22;10857;52.228;21.026;2024-01-15T07:45:02;1.70;99.90
21393;DHT22;10857;52.228;21.026;2024-01-15T07:47:30;1.60;99.90
21393;DHT22;10857;52.228;21.026;2024-01-15T07:49:57;1.60;99.90
21393;DHT22;10857;52.228;21.026;2024-01-15T07:52:31;1.70;99.90
21393;DHT22;10857;52.228;21.026;2024-01-15T07:54:58;1.60;99.90
21393;DHT22;10857;52.228;21.026;2024-01-15T07:57:31;1.70;99.90
21393;DHT22;10857;52.228;21.026;2024-01-15T07:59:58;1.70;99.90
21393;DHT22;10857;52.228;21.026;2024-01-15T08:02:25;1.60;99.90
21393;DHT22;10857;52.228;21.026;2024-01-15T08:04:52;1.60;99.90
21393;DHT22;10857;52.228;21.026;2024-01-15T08:07:19;1.60;99.90
21393;DHT22;10857;52.228;21.026;2024-01-15T08:09:46;1.60;99.90
21393;DHT22;10857;52.228;21.026;2024-01-15T08:12:15;1.60;99.90
21393;DHT22;10857;52.228;21.026;2024-01-15T08:14:43;1.60;99.90
21393;DHT22;10857;52.228;21.026;2024-01-15T08:17:10;1.60;99.90
21393;DHT22;10857;52.228;21.026;2024-01-15T08:19:37;1.50;99.90
21393;DHT22;10857;52.228;21.026;2024-01-15T08:22:08;1.50;99.90
21393;DHT22;10857;52.228;21.026;2024-01-15T08:24:35;1.50;99.90
21393;DHT22;10857;52.228;21.026;2024-01-15T08:27:02;1.60;99.90
21393;DHT22;10857;52.228;21.026;2024-01-15T08:29:31;1.60;99.90
21393;DHT22;10857;52.228;21.026;2024-01-15T08:32:00;1.60;99.90
21393;DHT22;10857;52.228;21.026;2024-01-15T08:34:27;1.70;99.90
21393;DHT22;10857;52.228;21.026;2024-01-15T08:36:57;1.70;99.90
21393;DHT22;10857;52.228;21.026;2024-01-15T08:39:25;1.70;99.90
21393;DHT22;10857;52.228;21.026;2024-01-15T08:41:52;1.80;99.90
21393;DHT22;10857;52.228;21.026;2024-01-15T08:44:19;1.90;99.90
21393;DHT22;10857;52.228;21.026;2024-01-15T08:46:46;1.80;99.90
21393;DHT22;10857;52.228;21.026;2024-01-15T08:49:13;1.80;99.90
21393;DHT22;10857;52.228;21.026;2024-01-15T08:51:40;1.90;99.90
21393;DHT22;10857;52.228;21.026;2024-01-15T08:54:08;1.80;99.90
21393;DHT22;10857;52.228;21.026;2024-01-15T08:56:35;1.90;99.90
21393;DHT22;10857;52.228;21.026;2024-01-15T08:59:02;1.90;99.90
21393;DHT22;10857;52.228;21.026;2024-01-15T09:01:29;1.80;99.90
21393;DHT22;10857;52.228;21.026;2024-01-15T09:03:57;1.70;99.90
21393;DHT22;10857;52.228;21.026;2024-01-15T09:06:25;1.70;99.90
21393;DHT22;10857;52.228;21.026;2024-01-15T09:08:53;1.70;99.90
21393;DHT22;10857;52.228;21.026;2024-01-15T09:15:47;1.70;99.90
21393;DHT22;10857;52.228;21.026;2024-01-15T09:18:14;1.60;99.90
21393;DHT22;10857;52.228;21.026;2024-01-15T09:20:41;1.80;99.90
21393;DHT22;10857;52.228;21.026;2024-01-15T09:23:08;1.80;99.90
21393;DHT22;10857;52.228;21.026;2024-01-15T09:25:35;1.90;99.90
21393;DHT22;10857;52.228;21.026;2024-01-15T09:28:02;1.90;99.90
21393;DHT22;10857;52.228;21.026;2024-01-15T09:30:29;2.00;99.90
21393;DHT22;10857;52.228;21.026;2024-01-15T09:32:57;1.90;99.90
21393;DHT22;10857;52.228;21.026;2024-01-15T09:35:25;2.00;99.90
21393;DHT22;10857;52.228;21.026;2024-01-15T09:37:52;2.00;99.90
21393;DHT22;10857;52.228;21.026;2024-01-15T09:40:20;2.10;99.90
21393;DHT22;10857;52.228;21.026;2024-01-15T09:42:47;2.10;99.90
21393;DHT22;10857;52.228;21.026;2024-01-15T09:45:15;1.90;99.90
21393;DHT22;10857;52.228;21.026;2024-01-15T09:47:43;2.00;99.90
21393;DHT22;10857;52.228;21.026;2024-01-15T09:50:13;2.00;99.90
21393;DHT22;10857;52.228;21.026;2024-01-15T09:52:43;2.10;99.90
21393;DHT22;10857;52.228;21.026;2024-01-15T09:55:12;2.10;99.90
21393;DHT22;10857;52.228;21.026;2024-01-15T09:57:39;2.10;99.90
21393;DHT22;10857;52.228;21.026;2024-01-15T10:00:07;2.00;99.90
21393;DHT22;10857;52.228;21.026;2024-01-15T10:02:38;2.10;99.90
21393;DHT22;10857;52.228;21.026;2024-01-15T10:05:05;2.10;99.90
21393;DHT22;10857;52.228;21.026;2024-01-15T10:07:35;2.10;99.90
21393;DHT22;10857;52.228;21.026;2024-01-15T10:10:03;2.10;99.90
21393;DHT22;10857;52.228;21.026;2024-01-15T10:12:30;2.10;99.90
21393;DHT22;10857;52.228;21.026;2024-01-15T10:14:58;2.30;99.90
21393;DHT22;10857;52.228;21.026;2024-01-15T10:17:25;2.20;99.90
21393;DHT22;10857;52.228;21.026;2024-01-15T10:19:55;2.30;99.90
21393;DHT22;10857;52.228;21.026;2024-01-15T10:22:23;2.20;99.90
21393;DHT22;10857;52.228;21.026;2024-01-15T10:24:51;2.30;99.90
21393;DHT22;10857;52.228;21.026;2024-01-15T10:27:18;2.40;99.90
21393;DHT22;10857;52.228;21.026;2024-01-15T10:29:45;2.30;99.90
21393;DHT22;10857;52.228;21.026;2024-01-15T10:32:12;2.40;99.90
21393;DHT22;10857;52.228;21.026;2024-01-15T10:34:42;2.30;99.90
21393;DHT22;10857;52.228;21.026;2024-01-15T10:37:12;2.10;99.90
21393;DHT22;10857;52.228;21.026;2024-01-15T10:39:39;2.10;99.90
21393;DHT22;10857;52.228;21.026;2024-01-15T10:42:06;2.10;99.90
21393;DHT22;10857;52.228;21.026;2024-01-15T10:44:34;2.20;99.90
21393;DHT22;10857;52.228;21.026;2024-01-15T10:47:02;2.20;99.90
21393;DHT22;10857;52.228;21.026;2024-01-15T10:49:30;2.10;99.90
21393;DHT22;10857;52.228;21.026;2024-01-15T10:52:03;2.10;99.90
21393;DHT22;10857;52.228;21.026;2024-01-15T10:54:31;2.10;99.90
21393;DHT22;10857;52.228;21.026;2024-01-15T10:56:59;2.20;99.90
21393;DHT22;10857;52.228;21.026;2024-01-15T10:59:26;2.30;99.90
21393;DHT22;10857;52.228;21.026;2024-01-15T11:01:53;2.30;99.90
21393;DHT22;10857;52.228;21.026;2024-01-15T11:04:22;2.20;99.90
21393;DHT22;10857;52.228;21.026;2024-01-15T11:06:53;2.30;99.90
21393;DHT22;10857;52.228;21.026;2024-01-15T11:09:23;2.30;99.90
21393;DHT22;10857;52.228;21.026;2024-01-15T11:12:06;2.30;99.90
21393;DHT22;10857;52.228;21.026;2024-01-15T11:14:46;2.30;99.90
21393;DHT22;10857;52.228;21.026;2024-01-15T11:17:15;2.30;99.90
21393;DHT22;10857;52.228;21.026;2024-01-15T11:19:47;2.40;99.90
21393;DHT22;10857;52.228;21.026;2024-01-15T11:25:03;2.40;99.90
21393;DHT22;10857;52.228;21.026;2024-01-15T11:27:50;2.30;99.90
21393;DHT22;10857;52.228;21.026;2024-01-15T11:30:25;2.30;99.90
21393;DHT22;10857;52.228;21.026;2024-01-15T11:32:53;2.30;99.90
21393;DHT22;10857;52.228;21.026;2024-01-15T11:35:20;2.40;99.90
21393;DHT22;10857;52.228;21.026;2024-01-15T11:40:19;2.40;99.90
21393;DHT22;10857;52.228;21.026;2024-01-15T11:42:46;2.40;99.90
21393;DHT22;10857;52.228;21.026;2024-01-15T11:45:19;2.40;99.90
21393;DHT22;10857;52.228;21.026;2024-01-15T11:50:48;2.40;99.90
21393;DHT22;10857;52.228;21.026;2024-01-15T11:53:47;2.40;99.90
21393;DHT22;10857;52.228;21.026;2024-01-15T11:56:15;2.40;99.90
21393;DHT22;10857;52.228;21.026;2024-01-15T11:58:46;2.30;99.90
21393;DHT22;10857;52.228;21.026;2024-01-15T12:01:14;2.30;99.90
21393;DHT22;10857;52.228;21.026;2024-01-15T12:03:41;2.30;99.90
21393;DHT22;10857;52.228;21.026;2024-01-15T12:06:09;2.20;99.90
21393;DHT22;10857;52.228;21.026;2024-01-15T12:08:37;2.30;99.90
21393;DHT22;10857;52.228;21.026;2024-01-15T12:11:12;2.30;99.90
21393;DHT22;10857;52.228;21.026;2024-01-15T12:13:40;2.20;99.90
21393;DHT22;10857;52.228;21.026;2024-01-15T12:16:08;2.20;99.90
21393;DHT22;10857;52.228;21.026;2024-01-15T12:18:35;2.10;99.90
21393;DHT22;10857;52.228;21.026;2024-01-15T12:21:04;2.10;99.90
21393;DHT22;10857;52.228;21.026;2024-01-15T12:23:31;2.10;99.90
21393;DHT22;10857;52.228;21.026;2024-01-15T12:25:58;2.10;99.90
21393;DHT22;10857;52.228;21.026;2024-01-15T12:28:27;2.10;99.90
21393;DHT22;10857;52.228;21.026;2024-01-15T12:30:56;2.20;99.90
21393;DHT22;10857;52.228;21.026;2024-01-15T12:33:23;2.20;99.90
21393;DHT22;10857;52.228;21.026;2024-01-15T12:35:53;2.10;99.90
21393;DHT22;10857;52.228;21.026;2024-01-15T12:38:20;2.10;99.90
21393;DHT22;10857;52.228;21.026;2024-01-15T12:40:48;2.00;99.90
21393;DHT22;10857;52.228;21.026;2024-01-15T12:43:15;1.90;99.90
21393;DHT22;10857;52.228;21.026;2024-01-15T12:45:42;1.70;99.90
21393;DHT22;10857;52.228;21.026;2024-01-15T12:48:10;1.70;99.90
21393;DHT22;10857;52.228;21.026;2024-01-15T12:50:37;1.60;99.90
21393;DHT22;10857;52.228;21.026;2024-01-15T12:53:04;1.70;99.90
21393;DHT22;10857;52.228;21.026;2024-01-15T12:55:31;1.70;99.90
21393;DHT22;10857;52.228;21.026;2024-01-15T12:57:58;1.70;99.90
21393;DHT22;10857;52.228;21.026;2024-01-15T13:00:25;1.70;99.90
21393;DHT22;10857;52.228;21.026;2024-01-15T13:02:53;1.70;99.90
21393;DHT22;10857;52.228;21.026;2024-01-15T13:05:22;1.70;99.90
21393;DHT22;10857;52.228;21.026;2024-01-15T13:07:50;1.80;99.90
21393;DHT22;10857;52.228;21.026;2024-01-15T13:10:17;1.80;99.90
21393;DHT22;10857;52.228;21.026;2024-01-15T13:12:45;1.90;99.90
21393;DHT22;10857;52.228;21.026;2024-01-15T13:15:12;1.90;99.90
21393;DHT22;10857;52.228;21.026;2024-01-15T13:17:41;1.60;99.90
21393;DHT22;10857;52.228;21.026;2024-01-15T13:20:10;1.40;99.90
21393;DHT22;10857;52.228;21.026;2024-01-15T13:22:38;1.40;99.90
21393;DHT22;10857;52.228;21.026;2024-01-15T13:25:07;1.30;99.90
21393;DHT22;10857;52.228;21.026;2024-01-15T13:27:35;1.30;99.90
21393;DHT22;10857;52.228;21.026;2024-01-15T13:30:05;1.40;99.90
21393;DHT22;10857;52.228;21.026;2024-01-15T13:32:35;1.30;99.90
21393;DHT22;10857;52.228;21.026;2024-01-15T13:35:02;1.30;99.90
21393;DHT22;10857;52.228;21.026;2024-01-15T13:37:34;1.30;99.90
21393;DHT22;10857;52.228;21.026;2024-01-15T13:40:04;1.30;99.90
21393;DHT22;10857;52.228;21.026;2024-01-15T13:42:31;1.30;99.90
21393;DHT22;10857;52.228;21.026;2024-01-15T13:44:58;1.40;99.90
21393;DHT22;10857;52.228;21.026;2024-01-15T13:47:26;1.40;99.90
21393;DHT22;10857;52.228;21.026;2024-01-15T13:49:53;1.40;99.90
21393;DHT22;10857;52.228;21.026;2024-01-15T13:52:20;1.50;99.90
21393;DHT22;10857;52.228;21.026;2024-01-15T13:54:47;1.50;99.90
21393;DHT22;10857;52.228;21.026;2024-01-15T13:57:23;1.50;99.90
21393;DHT22;10857;52.228;21.026;2024-01-15T13:59:50;1.50;99.90
21393;DHT22;10857;52.228;21.026;2024-01-15T14:02:17;1.60;99.90
21393;DHT22;10857;52.228;21.026;2024-01-15T14:04:48;1.50;99.90
21393;DHT22;10857;52.228;21.026;2024-01-15T14:07:16;1.60;99.90
21393;DHT22;10857;52.228;21.026;2024-01-15T14:09:43;1.60;99.90
21393;DHT22;10857;52.228;21.026;2024-01-15T14:12:10;1.70;99.90
21393;DHT22;10857;52.228;21.026;2024-01-15T14:14:38;1.70;99.90
21393;DHT22;10857;52.228;21.026;2024-01-15T14:17:07;1.70;99.90
21393;DHT22;10857;52.228;21.026;2024-01-15T14:19:34;1.80;99.90
21393;DHT22;10857;52.228;21.026;2024-01-15T14:22:01;1.80;99.90
21393;DHT22;10857;52.228;21.026;2024-01-15T14:24:28;1.70;99.90
21393;DHT22;10857;52.228;21.026;2024-01-15T14:26:55;1.80;99.90
21393;DHT22;10857;52.228;21.026;2024-01-15T14:29:23;1.80;99.90
21393;DHT22;10857;52.228;21.026;2024-01-15T14:31:53;1.80;99.90
21393;DHT22;10857;52.228;21.026;2024-01-15T14:34:20;1.80;99.90
21393;DHT22;10857;52.228;21.026;2024-01-15T14:36:50;1.80;99.90
21393;DHT22;10857;52.228;21.026;2024-01-15T14:39:24;1.80;99.90
21393;DHT22;10857;52.228;21.026;2024-01-15T14:41:52;1.80;99.90
21393;DHT22;10857;52.228;21.026;2024-01-15T14:44:19;1.80;99.90
21393;DHT22;10857;52.228;21.026;2024-01-15T14:46:47;1.80;99.90
21393;DHT22;10857;52.228;21.026;2024-01-15T14:49:15;1.80;99.90
21393;DHT22;10857;52.228;21.026;2024-01-15T14:51:44;1.80;99.90
21393;DHT22;10857;52.228;21.026;2024-01-15T14:54:11;1.80;99.90
21393;DHT22;10857;52.228;21.026;2024-01-15T14:56:39;1.80;99.90
21393;DHT22;10857;52.228;21.026;2024-01-15T14:59:06;1.80;99.90
21393;DHT22;10857;52.228;21.026;2024-01-15T15:01:33;1.80;99.90
21393;DHT22;10857;52.228;21.026;2024-01-15T15:04:01;1.80;99.90
21393;DHT22;10857;52.228;21.026;2024-01-15T15:06:28;1.80;99.90
21393;DHT22;10857;52.228;21.026;2024-01-15T15:08:55;1.70;99.90
21393;DHT22;10857;52.228;21.026;2024-01-15T15:11:27;1.70;99.90
21393;DHT22;10857;52.228;21.026;2024-01-15T15:13:55;1.70;99.90
21393;DHT22;10857;52.228;21.026;2024-01-15T15:16:22;1.70;99.90
21393;DHT22;10857;52.228;21.026;2024-01-15T15:18:49;1.80;99.90
21393;DHT22;10857;52.228;21.026;2024-01-15T15:21:16;1.70;99.90
21393;DHT22;10857;52.228;21.026;2024-01-15T15:23:44;1.70;99.90
21393;DHT22;10857;52.228;21.026;2024-01-15T15:26:11;1.70;99.90
21393;DHT22;10857;52.228;21.026;2024-01-15T15:28:38;1.70;99.90
21393;DHT22;10857;52.228;21.026;2024-01-15T15:31:08;1.70;99.90
21393;DHT22;10857;52.228;21.026;2024-01-15T15:33:37;1.80;99.90
21393;DHT22;10857;52.228;21.026;2024-01-15T15:36:05;1.70;99.90
21393;DHT22;10857;52.228;21.026;2024-01-15T15:38:32;1.80;99.90
21393;DHT22;10857;52.228;21.026;2024-01-15T15:41:00;1.80;99.90
21393;DHT22;10857;52.228;21.026;2024-01-15T15:43:28;1.70;99.90
21393;DHT22;10857;52.228;21.026;2024-01-15T15:45:56;1.80;99.90